sensor_id;sensor_type;location;lat;lon;timestamp;P1;durP1;ratioP1;P2;durP2;ratioP2
20531;SDS011;10424;52.102;8.084;2023-06-10T00:02:05;11.70;;;6.35;;
20531;SDS011;10424;52.102;8.084;2023-06-10T00:04:33;14.63;;;6.35;;
20531;SDS011;10424;52.102;8.084;2023-06-10T00:07:03;9.13;;;5.80;;
20531;SDS011;10424;52.102;8.084;2023-06-10T00:09:33;9.68;;;5.65;;
20531;SDS011;10424;52.102;8.084;2023-06-10T00:12:01;10.68;;;6.25;;
20531;SDS011;10424;52.102;8.084;2023-06-10T00:14:29;12.32;;;6.15;;
20531;SDS011;10424;52.102;8.084;2023-06-10T00:16:56;9.27;;;6.03;;
20531;SDS011;10424;52.102;8.084;2023-06-10T00:19:24;9.48;;;5.75;;
20531;SDS011;10424;52.102;8.084;2023-06-10T00:21:55;8.27;;;5.78;;
20531;SDS011;10424;52.102;8.084;2023-06-10T00:24:24;15.73;;;6.20;;
20531;SDS011;10424;52.102;8.084;2023-06-10T00:26:51;10.05;;;5.70;;
20531;SDS011;10424;52.102;8.084;2023-06-10T00:29:18;8.93;;;5.85;;
20531;SDS011;10424;52.102;8.084;2023-06-10T00:31:46;10.88;;;5.80;;
20531;SDS011;10424;52.102;8.084;2023-06-10T00:34:13;9.90;;;5.78;;
20531;SDS011;10424;52.102;8.084;2023-06-10T00:36:40;10.50;;;5.88;;
20531;SDS011;10424;52.102;8.084;2023-06-10T00:39:08;11.57;;;5.75;;
20531;SDS011;10424;52.102;8.084;2023-06-10T00:41:37;9.52;;;5.45;;
20531;SDS011;10424;52.102;8.084;2023-06-10T00:44:05;8.57;;;5.50;;
20531;SDS011;10424;52.102;8.084;2023-06-10T00:46:32;11.05;;;5.82;;
20531;SDS011;10424;52.102;8.084;2023-06-10T00:48:59;12.90;;;5.97;;
20531;SDS011;10424;52.102;8.084;2023-06-10T00:51:27;10.50;;;5.45;;
20531;SDS011;10424;52.102;8.084;2023-06-10T00:53:54;10.07;;;5.78;;
20531;SDS011;10424;52.102;8.084;2023-06-10T00:56:21;9.25;;;5.80;;
20531;SDS011;10424;52.102;8.084;2023-06-10T00:58:52;11.95;;;5.90;;
20531;SDS011;10424;52.102;8.084;2023-06-10T01:01:20;9.50;;;5.75;;
20531;SDS011;10424;52.102;8.084;2023-06-10T01:03:47;12.02;;;6.07;;
20531;SDS011;10424;52.102;8.084;2023-06-10T01:06:17;9.95;;;5.88;;
20531;SDS011;10424;52.102;8.084;2023-06-10T01:08:47;10.75;;;6.05;;
20531;SDS011;10424;52.102;8.084;2023-06-10T01:11:17;10.65;;;6.00;;
20531;SDS011;10424;52.102;8.084;2023-06-10T01:13:46;9.30;;;5.80;;
20531;SDS011;10424;52.102;8.084;2023-06-10T01:16:18;9.90;;;5.95;;
20531;SDS011;10424;52.102;8.084;2023-06-10T01:18:46;10.90;;;5.82;;
20531;SDS011;10424;52.102;8.084;2023-06-10T01:21:17;13.73;;;5.60;;
20531;SDS011;10424;52.102;8.084;2023-06-10T01:23:45;12.77;;;5.97;;
20531;SDS011;10424;52.102;8.084;2023-06-10T01:26:12;12.35;;;6.10;;
20531;SDS011;10424;52.102;8.084;2023-06-10T01:28:43;11.00;;;5.72;;
20531;SDS011;10424;52.102;8.084;2023-06-10T01:31:13;10.15;;;5.68;;
20531;SDS011;10424;52.102;8.084;2023-06-10T01:33:43;9.23;;;5.78;;
20531;SDS011;10424;52.102;8.084;2023-06-10T01:36:10;13.18;;;6.00;;
20531;SDS011;10424;52.102;8.084;2023-06-10T01:38:42;10.40;;;5.78;;
20531;SDS011;10424;52.102;8.084;2023-06-10T01:41:10;8.95;;;5.85;;
20531;SDS011;10424;52.102;8.084;2023-06-10T01:43:37;9.43;;;5.65;;
20531;SDS011;10424;52.102;8.084;2023-06-10T01:46:05;9.45;;;5.80;;
20531;SDS011;10424;52.102;8.084;2023-06-10T01:48:32;12.68;;;5.82;;
20531;SDS011;10424;52.102;8.084;2023-06-10T01:51:00;10.57;;;5.97;;
20531;SDS011;10424;52.102;8.084;2023-06-10T01:53:27;9.43;;;6.03;;
20531;SDS011;10424;52.102;8.084;2023-06-10T01:55:55;11.57;;;5.60;;
20531;SDS011;10424;52.102;8.084;2023-06-10T01:58:23;9.45;;;5.22;;
20531;SDS011;10424;52.102;8.084;2023-06-10T02:00:50;11.98;;;5.50;;
20531;SDS011;10424;52.102;8.084;2023-06-10T02:03:17;10.32;;;5.50;;
20531;SDS011;10424;52.102;8.084;2023-06-10T02:05:45;11.93;;;5.70;;
20531;SDS011;10424;52.102;8.084;2023-06-10T02:08:12;11.00;;;5.47;;
20531;SDS011;10424;52.102;8.084;2023-06-10T02:10:39;8.82;;;5.45;;
20531;SDS011;10424;52.102;8.084;2023-06-10T02:13:08;10.02;;;6.10;;
20531;SDS011;10424;52.102;8.084;2023-06-10T02:15:35;9.95;;;5.90;;
20531;SDS011;10424;52.102;8.084;2023-06-10T02:18:03;10.07;;;6.07;;
20531;SDS011;10424;52.102;8.084;2023-06-10T02:20:30;8.95;;;5.80;;
20531;SDS011;10424;52.102;8.084;2023-06-10T02:22:58;10.38;;;5.75;;
20531;SDS011;10424;52.102;8.084;2023-06-10T02:25:26;10.98;;;6.75;;
20531;SDS011;10424;52.102;8.084;2023-06-10T02:27:53;12.77;;;5.80;;
20531;SDS011;10424;52.102;8.084;2023-06-10T02:30:21;10.05;;;5.80;;
20531;SDS011;10424;52.102;8.084;2023-06-10T02:32:49;9.00;;;5.60;;
20531;SDS011;10424;52.102;8.084;2023-06-10T02:35:17;10.60;;;6.13;;
20531;SDS011;10424;52.102;8.084;2023-06-10T02:37:44;10.32;;;6.15;;
20531;SDS011;10424;52.102;8.084;2023-06-10T02:40:12;15.80;;;6.10;;
20531;SDS011;10424;52.102;8.084;2023-06-10T02:42:39;9.30;;;5.85;;
20531;SDS011;10424;52.102;8.084;2023-06-10T02:45:07;10.35;;;5.97;;
20531;SDS011;10424;52.102;8.084;2023-06-10T02:47:37;7.85;;;5.50;;
20531;SDS011;10424;52.102;8.084;2023-06-10T02:50:05;10.80;;;6.22;;
20531;SDS011;10424;52.102;8.084;2023-06-10T02:52:32;11.02;;;5.85;;
20531;SDS011;10424;52.102;8.084;2023-06-10T02:54:59;13.60;;;6.30;;
20531;SDS011;10424;52.102;8.084;2023-06-10T02:57:27;12.15;;;6.38;;
20531;SDS011;10424;52.102;8.084;2023-06-10T02:59:54;15.70;;;6.38;;
20531;SDS011;10424;52.102;8.084;2023-06-10T03:02:23;11.77;;;6.22;;
20531;SDS011;10424;52.102;8.084;2023-06-10T03:04:54;13.23;;;6.55;;
20531;SDS011;10424;52.102;8.084;2023-06-10T03:07:22;11.50;;;6.50;;
20531;SDS011;10424;52.102;8.084;2023-06-10T03:09:49;9.88;;;6.22;;
20531;SDS011;10424;52.102;8.084;2023-06-10T03:12:17;11.32;;;6.13;;
20531;SDS011;10424;52.102;8.084;2023-06-10T03:14:44;10.10;;;6.00;;
20531;SDS011;10424;52.102;8.084;2023-06-10T03:17:11;9.27;;;5.93;;
20531;SDS011;10424;52.102;8.084;2023-06-10T03:19:38;9.60;;;6.03;;
20531;SDS011;10424;52.102;8.084;2023-06-10T03:22:10;9.88;;;5.80;;
20531;SDS011;10424;52.102;8.084;2023-06-10T03:24:38;9.57;;;5.85;;
20531;SDS011;10424;52.102;8.084;2023-06-10T03:27:06;8.25;;;5.40;;
20531;SDS011;10424;52.102;8.084;2023-06-10T03:29:34;10.38;;;5.93;;
20531;SDS011;10424;52.102;8.084;2023-06-10T03:32:02;11.93;;;5.72;;
20531;SDS011;10424;52.102;8.084;2023-06-10T03:34:29;8.27;;;5.60;;
20531;SDS011;10424;52.102;8.084;2023-06-10T03:36:56;9.82;;;5.70;;
20531;SDS011;10424;52.102;8.084;2023-06-10T03:39:25;10.63;;;5.53;;
20531;SDS011;10424;52.102;8.084;2023-06-10T03:41:54;8.52;;;5.72;;
20531;SDS011;10424;52.102;8.084;2023-06-10T03:44:22;10.93;;;6.03;;
20531;SDS011;10424;52.102;8.084;2023-06-10T03:46:49;8.73;;;5.70;;
20531;SDS011;10424;52.102;8.084;2023-06-10T03:49:17;11.25;;;5.63;;
20531;SDS011;10424;52.102;8.084;2023-06-10T03:51:44;13.05;;;5.90;;
20531;SDS011;10424;52.102;8.084;2023-06-10T03:54:11;10.27;;;6.10;;
20531;SDS011;10424;52.102;8.084;2023-06-10T03:56:40;9.95;;;5.43;;
20531;SDS011;10424;52.102;8.084;2023-06-10T03:59:07;9.85;;;5.53;;
20531;SDS011;10424;52.102;8.084;2023-06-10T04:01:34;8.93;;;5.28;;
20531;SDS011;10424;52.102;8.084;2023-06-10T04:04:02;9.40;;;5.30;;
20531;SDS011;10424;52.102;8.084;2023-06-10T04:06:29;10.65;;;5.75;;
20531;SDS011;10424;52.102;8.084;2023-06-10T04:08:57;10.30;;;5.57;;
20531;SDS011;10424;52.102;8.084;2023-06-10T04:11:24;8.63;;;5.47;;
20531;SDS011;10424;52.102;8.084;2023-06-10T04:13:53;9.63;;;5.55;;
20531;SDS011;10424;52.102;8.084;2023-06-10T04:16:20;11.23;;;5.53;;
20531;SDS011;10424;52.102;8.084;2023-06-10T04:18:47;8.55;;;5.65;;
20531;SDS011;10424;52.102;8.084;2023-06-10T04:21:15;10.00;;;4.90;;
20531;SDS011;10424;52.102;8.084;2023-06-10T04:23:42;8.27;;;5.30;;
20531;SDS011;10424;52.102;8.084;2023-06-10T04:26:09;10.27;;;5.25;;
20531;SDS011;10424;52.102;8.084;2023-06-10T04:28:37;7.97;;;4.93;;
20531;SDS011;10424;52.102;8.084;2023-06-10T04:31:06;10.13;;;5.18;;
20531;SDS011;10424;52.102;8.084;2023-06-10T04:33:33;7.63;;;4.70;;
20531;SDS011;10424;52.102;8.084;2023-06-10T04:36:00;9.30;;;5.20;;
20531;SDS011;10424;52.102;8.084;2023-06-10T04:38:27;7.97;;;4.75;;
20531;SDS011;10424;52.102;8.084;2023-06-10T04:40:55;9.15;;;5.25;;
20531;SDS011;10424;52.102;8.084;2023-06-10T04:43:23;11.02;;;5.15;;
20531;SDS011;10424;52.102;8.084;2023-06-10T04:45:50;8.05;;;4.70;;
20531;SDS011;10424;52.102;8.084;2023-06-10T04:48:18;11.65;;;5.30;;
20531;SDS011;10424;52.102;8.084;2023-06-10T04:50:46;8.20;;;5.13;;
20531;SDS011;10424;52.102;8.084;2023-06-10T04:53:13;9.55;;;5.35;;
20531;SDS011;10424;52.102;8.084;2023-06-10T04:55:40;7.97;;;5.00;;
20531;SDS011;10424;52.102;8.084;2023-06-10T04:58:09;9.32;;;5.35;;
20531;SDS011;10424;52.102;8.084;2023-06-10T05:00:36;8.95;;;5.05;;
20531;SDS011;10424;52.102;8.084;2023-06-10T05:03:03;8.90;;;4.90;;
20531;SDS011;10424;52.102;8.084;2023-06-10T05:05:32;7.68;;;5.07;;
20531;SDS011;10424;52.102;8.084;2023-06-10T05:07:59;7.40;;;4.93;;
20531;SDS011;10424;52.102;8.084;2023-06-10T05:10:26;8.98;;;4.90;;
20531;SDS011;10424;52.102;8.084;2023-06-10T05:12:56;7.15;;;5.00;;
20531;SDS011;10424;52.102;8.084;2023-06-10T05:15:24;9.50;;;4.80;;
20531;SDS011;10424;52.102;8.084;2023-06-10T05:17:51;7.40;;;4.95;;
20531;SDS011;10424;52.102;8.084;2023-06-10T05:20:18;9.77;;;5.65;;
20531;SDS011;10424;52.102;8.084;2023-06-10T05:22:47;7.57;;;4.82;;
20531;SDS011;10424;52.102;8.084;2023-06-10T05:25:14;8.90;;;4.97;;
20531;SDS011;10424;52.102;8.084;2023-06-10T05:27:41;8.75;;;4.90;;
20531;SDS011;10424;52.102;8.084;2023-06-10T05:30:09;7.95;;;4.75;;
20531;SDS011;10424;52.102;8.084;2023-06-10T05:32:37;8.23;;;5.10;;
20531;SDS011;10424;52.102;8.084;2023-06-10T05:35:04;7.75;;;4.72;;
20531;SDS011;10424;52.102;8.084;2023-06-10T05:37:33;11.00;;;5.65;;
20531;SDS011;10424;52.102;8.084;2023-06-10T05:40:03;7.65;;;4.97;;
20531;SDS011;10424;52.102;8.084;2023-06-10T05:42:31;10.05;;;5.28;;
20531;SDS011;10424;52.102;8.084;2023-06-10T05:44:58;8.98;;;4.75;;
20531;SDS011;10424;52.102;8.084;2023-06-10T05:47:25;20.45;;;8.07;;
20531;SDS011;10424;52.102;8.084;2023-06-10T05:49:53;9.73;;;4.80;;
20531;SDS011;10424;52.102;8.084;2023-06-10T05:52:20;8.50;;;5.03;;
20531;SDS011;10424;52.102;8.084;2023-06-10T05:54:48;7.35;;;4.75;;
20531;SDS011;10424;52.102;8.084;2023-06-10T05:57:17;7.07;;;4.38;;
20531;SDS011;10424;52.102;8.084;2023-06-10T05:59:45;9.57;;;5.35;;
20531;SDS011;10424;52.102;8.084;2023-06-10T06:02:12;10.85;;;4.90;;
20531;SDS011;10424;52.102;8.084;2023-06-10T06:04:39;6.28;;;4.10;;
20531;SDS011;10424;52.102;8.084;2023-06-10T06:07:06;7.47;;;4.60;;
20531;SDS011;10424;52.102;8.084;2023-06-10T06:09:34;7.88;;;4.80;;
20531;SDS011;10424;52.102;8.084;2023-06-10T06:12:01;6.20;;;4.38;;
20531;SDS011;10424;52.102;8.084;2023-06-10T06:14:31;8.82;;;4.40;;
20531;SDS011;10424;52.102;8.084;2023-06-10T06:16:58;11.00;;;4.57;;
20531;SDS011;10424;52.102;8.084;2023-06-10T06:19:25;7.57;;;4.38;;
20531;SDS011;10424;52.102;8.084;2023-06-10T06:21:52;11.50;;;4.65;;
20531;SDS011;10424;52.102;8.084;2023-06-10T06:24:20;9.82;;;4.80;;
20531;SDS011;10424;52.102;8.084;2023-06-10T06:26:47;10.40;;;4.40;;
20531;SDS011;10424;52.102;8.084;2023-06-10T06:29:14;8.80;;;4.43;;
20531;SDS011;10424;52.102;8.084;2023-06-10T06:31:43;7.25;;;4.20;;
20531;SDS011;10424;52.102;8.084;2023-06-10T06:34:10;8.65;;;4.10;;
20531;SDS011;10424;52.102;8.084;2023-06-10T06:36:38;7.45;;;4.13;;
20531;SDS011;10424;52.102;8.084;2023-06-10T06:39:05;12.88;;;4.30;;
20531;SDS011;10424;52.102;8.084;2023-06-10T06:41:32;6.10;;;3.92;;
20531;SDS011;10424;52.102;8.084;2023-06-10T06:43:59;7.00;;;4.45;;
20531;SDS011;10424;52.102;8.084;2023-06-10T06:46:27;7.03;;;4.20;;
20531;SDS011;10424;52.102;8.084;2023-06-10T06:48:57;7.35;;;4.35;;
20531;SDS011;10424;52.102;8.084;2023-06-10T06:51:25;8.02;;;4.50;;
20531;SDS011;10424;52.102;8.084;2023-06-10T06:53:52;8.18;;;4.50;;
20531;SDS011;10424;52.102;8.084;2023-06-10T06:56:23;7.90;;;4.60;;
20531;SDS011;10424;52.102;8.084;2023-06-10T06:58:52;8.15;;;4.45;;
20531;SDS011;10424;52.102;8.084;2023-06-10T07:01:19;7.15;;;4.30;;
20531;SDS011;10424;52.102;8.084;2023-06-10T07:03:47;9.05;;;4.30;;
20531;SDS011;10424;52.102;8.084;2023-06-10T07:06:16;7.90;;;4.15;;
20531;SDS011;10424;52.102;8.084;2023-06-10T07:08:43;6.85;;;4.28;;
20531;SDS011;10424;52.102;8.084;2023-06-10T07:11:10;9.30;;;4.50;;
20531;SDS011;10424;52.102;8.084;2023-06-10T07:13:38;7.60;;;4.03;;
20531;SDS011;10424;52.102;8.084;2023-06-10T07:16:05;9.80;;;4.43;;
20531;SDS011;10424;52.102;8.084;2023-06-10T07:18:32;8.77;;;4.10;;
20531;SDS011;10424;52.102;8.084;2023-06-10T07:21:00;7.13;;;4.20;;
20531;SDS011;10424;52.102;8.084;2023-06-10T07:23:28;8.80;;;3.90;;
20531;SDS011;10424;52.102;8.084;2023-06-10T07:25:56;6.90;;;4.03;;
20531;SDS011;10424;52.102;8.084;2023-06-10T07:28:23;7.32;;;4.10;;
20531;SDS011;10424;52.102;8.084;2023-06-10T07:30:50;11.35;;;4.60;;
20531;SDS011;10424;52.102;8.084;2023-06-10T07:33:18;6.68;;;4.50;;
20531;SDS011;10424;52.102;8.084;2023-06-10T07:35:45;8.50;;;4.38;;
20531;SDS011;10424;52.102;8.084;2023-06-10T07:38:12;6.53;;;4.57;;
20531;SDS011;10424;52.102;8.084;2023-06-10T07:40:41;7.35;;;4.10;;
20531;SDS011;10424;52.102;8.084;2023-06-10T07:43:25;8.07;;;4.50;;
20531;SDS011;10424;52.102;8.084;2023-06-10T07:45:57;7.20;;;4.70;;
20531;SDS011;10424;52.102;8.084;2023-06-10T07:48:25;7.90;;;4.70;;
20531;SDS011;10424;52.102;8.084;2023-06-10T07:50:52;8.98;;;4.93;;
20531;SDS011;10424;52.102;8.084;2023-06-10T07:53:20;7.47;;;4.53;;
20531;SDS011;10424;52.102;8.084;2023-06-10T07:55:48;10.25;;;4.38;;
20531;SDS011;10424;52.102;8.084;2023-06-10T07:58:16;8.13;;;4.10;;
20531;SDS011;10424;52.102;8.084;2023-06-10T08:00:43;6.10;;;4.05;;
20531;SDS011;10424;52.102;8.084;2023-06-10T08:03:11;5.57;;;3.97;;
20531;SDS011;10424;52.102;8.084;2023-06-10T08:05:39;7.35;;;4.20;;
20531;SDS011;10424;52.102;8.084;2023-06-10T08:08:06;7.25;;;3.70;;
20531;SDS011;10424;52.102;8.084;2023-06-10T08:10:33;6.97;;;3.85;;
20531;SDS011;10424;52.102;8.084;2023-06-10T08:13:02;7.18;;;3.90;;
20531;SDS011;10424;52.102;8.084;2023-06-10T08:15:29;6.43;;;3.97;;
20531;SDS011;10424;52.102;8.084;2023-06-10T08:17:57;6.20;;;3.80;;
20531;SDS011;10424;52.102;8.084;2023-06-10T08:20:24;6.32;;;3.60;;
20531;SDS011;10424;52.102;8.084;2023-06-10T08:22:51;5.47;;;3.70;;
20531;SDS011;10424;52.102;8.084;2023-06-10T08:25:18;6.18;;;3.72;;
20531;SDS011;10424;52.102;8.084;2023-06-10T08:27:47;6.57;;;3.75;;
20531;SDS011;10424;52.102;8.084;2023-06-10T08:30:17;6.15;;;3.42;;
20531;SDS011;10424;52.102;8.084;2023-06-10T08:32:44;4.78;;;3.42;;
20531;SDS011;10424;52.102;8.084;2023-06-10T08:35:11;7.32;;;3.40;;
20531;SDS011;10424;52.102;8.084;2023-06-10T08:37:39;6.57;;;3.25;;
20531;SDS011;10424;52.102;8.084;2023-06-10T08:40:07;7.80;;;3.58;;
20531;SDS011;10424;52.102;8.084;2023-06-10T08:42:37;6.88;;;3.35;;
20531;SDS011;10424;52.102;8.084;2023-06-10T08:45:07;6.00;;;3.53;;
20531;SDS011;10424;52.102;8.084;2023-06-10T08:47:36;4.20;;;3.20;;
20531;SDS011;10424;52.102;8.084;2023-06-10T08:50:06;5.10;;;3.35;;
20531;SDS011;10424;52.102;8.084;2023-06-10T08:52:34;6.05;;;3.63;;
20531;SDS011;10424;52.102;8.084;2023-06-10T08:55:03;5.03;;;3.45;;
20531;SDS011;10424;52.102;8.084;2023-06-10T08:57:31;5.60;;;3.17;;
20531;SDS011;10424;52.102;8.084;2023-06-10T08:59:58;5.00;;;3.30;;
20531;SDS011;10424;52.102;8.084;2023-06-10T09:02:26;5.30;;;3.53;;
20531;SDS011;10424;52.102;8.084;2023-06-10T09:04:55;5.35;;;3.17;;
20531;SDS011;10424;52.102;8.084;2023-06-10T09:07:23;5.47;;;3.55;;
20531;SDS011;10424;52.102;8.084;2023-06-10T09:09:50;6.10;;;3.42;;
20531;SDS011;10424;52.102;8.084;2023-06-10T09:12:19;4.78;;;3.50;;
20531;SDS011;10424;52.102;8.084;2023-06-10T09:14:46;7.05;;;3.35;;
20531;SDS011;10424;52.102;8.084;2023-06-10T09:17:13;7.95;;;3.70;;
20531;SDS011;10424;52.102;8.084;2023-06-10T09:19:41;5.07;;;3.35;;
20531;SDS011;10424;52.102;8.084;2023-06-10T09:22:10;8.05;;;3.50;;
20531;SDS011;10424;52.102;8.084;2023-06-10T09:24:37;6.88;;;3.55;;
20531;SDS011;10424;52.102;8.084;2023-06-10T09:27:06;4.95;;;3.05;;
20531;SDS011;10424;52.102;8.084;2023-06-10T09:29:44;3.92;;;3.00;;
20531;SDS011;10424;52.102;8.084;2023-06-10T09:32:12;6.10;;;3.20;;
20531;SDS011;10424;52.102;8.084;2023-06-10T09:34:39;6.72;;;3.38;;
20531;SDS011;10424;52.102;8.084;2023-06-10T09:37:07;5.40;;;3.17;;
20531;SDS011;10424;52.102;8.084;2023-06-10T09:39:38;4.35;;;3.20;;
20531;SDS011;10424;52.102;8.084;2023-06-10T09:42:15;4.38;;;3.20;;
20531;SDS011;10424;52.102;8.084;2023-06-10T09:44:48;7.78;;;3.55;;
20531;SDS011;10424;52.102;8.084;2023-06-10T09:47:19;5.57;;;3.25;;
20531;SDS011;10424;52.102;8.084;2023-06-10T09:49:46;5.40;;;3.45;;
20531;SDS011;10424;52.102;8.084;2023-06-10T09:52:14;6.03;;;3.30;;
20531;SDS011;10424;52.102;8.084;2023-06-10T09:54:43;9.65;;;3.63;;
20531;SDS011;10424;52.102;8.084;2023-06-10T09:57:11;8.43;;;3.65;;
20531;SDS011;10424;52.102;8.084;2023-06-10T09:59:39;6.22;;;3.22;;
20531;SDS011;10424;52.102;8.084;2023-06-10T10:02:06;10.50;;;3.55;;
20531;SDS011;10424;52.102;8.084;2023-06-10T10:04:40;8.38;;;3.38;;
20531;SDS011;10424;52.102;8.084;2023-06-10T10:07:07;5.03;;;3.00;;
20531;SDS011;10424;52.102;8.084;2023-06-10T10:09:35;5.78;;;2.97;;
20531;SDS011;10424;52.102;8.084;2023-06-10T10:12:04;4.38;;;3.10;;
20531;SDS011;10424;52.102;8.084;2023-06-10T10:14:36;5.85;;;3.35;;
20531;SDS011;10424;52.102;8.084;2023-06-10T10:17:04;5.68;;;3.30;;
20531;SDS011;10424;52.102;8.084;2023-06-10T10:19:34;3.90;;;2.85;;
20531;SDS011;10424;52.102;8.084;2023-06-10T10:22:06;4.95;;;3.10;;
20531;SDS011;10424;52.102;8.084;2023-06-10T10:24:36;6.82;;;3.28;;
20531;SDS011;10424;52.102;8.084;2023-06-10T10:30:10;4.88;;;3.03;;
20531;SDS011;10424;52.102;8.084;2023-06-10T10:32:38;4.55;;;3.20;;
20531;SDS011;10424;52.102;8.084;2023-06-10T10:35:08;7.05;;;3.53;;
20531;SDS011;10424;52.102;8.084;2023-06-10T10:37:35;4.10;;;3.20;;
20531;SDS011;10424;52.102;8.084;2023-06-10T10:40:03;4.85;;;3.30;;
20531;SDS011;10424;52.102;8.084;2023-06-10T10:42:31;5.03;;;3.55;;
20531;SDS011;10424;52.102;8.084;2023-06-10T10:44:59;4.75;;;3.40;;
20531;SDS011;10424;52.102;8.084;2023-06-10T10:47:28;5.90;;;3.20;;
20531;SDS011;10424;52.102;8.084;2023-06-10T10:49:55;4.43;;;3.28;;
20531;SDS011;10424;52.102;8.084;2023-06-10T10:52:24;6.13;;;3.33;;
20531;SDS011;10424;52.102;8.084;2023-06-10T10:54:53;6.22;;;3.10;;
20531;SDS011;10424;52.102;8.084;2023-06-10T10:57:21;4.85;;;3.55;;
20531;SDS011;10424;52.102;8.084;2023-06-10T11:02:42;6.60;;;3.35;;
20531;SDS011;10424;52.102;8.084;2023-06-10T11:05:10;7.22;;;3.40;;
20531;SDS011;10424;52.102;8.084;2023-06-10T11:07:37;4.75;;;3.25;;
20531;SDS011;10424;52.102;8.084;2023-06-10T11:10:08;5.50;;;3.20;;
20531;SDS011;10424;52.102;8.084;2023-06-10T11:15:19;5.22;;;3.25;;
20531;SDS011;10424;52.102;8.084;2023-06-10T11:18:09;5.20;;;3.33;;
20531;SDS011;10424;52.102;8.084;2023-06-10T11:20:44;7.40;;;3.30;;
20531;SDS011;10424;52.102;8.084;2023-06-10T11:23:24;4.63;;;3.30;;
20531;SDS011;10424;52.102;8.084;2023-06-10T11:25:55;4.28;;;3.00;;
20531;SDS011;10424;52.102;8.084;2023-06-10T11:28:36;5.78;;;3.08;;
20531;SDS011;10424;52.102;8.084;2023-06-10T11:31:03;4.63;;;3.28;;
20531;SDS011;10424;52.102;8.084;2023-06-10T11:33:32;5.97;;;2.97;;
20531;SDS011;10424;52.102;8.084;2023-06-10T11:36:00;5.80;;;3.40;;
20531;SDS011;10424;52.102;8.084;2023-06-10T11:38:27;4.45;;;3.17;;
20531;SDS011;10424;52.102;8.084;2023-06-10T11:40:55;5.05;;;3.20;;
20531;SDS011;10424;52.102;8.084;2023-06-10T11:43:22;6.00;;;3.15;;
20531;SDS011;10424;52.102;8.084;2023-06-10T11:45:53;8.45;;;3.55;;
20531;SDS011;10424;52.102;8.084;2023-06-10T11:48:22;5.85;;;2.97;;
20531;SDS011;10424;52.102;8.084;2023-06-10T11:50:52;8.50;;;3.25;;
20531;SDS011;10424;52.102;8.084;2023-06-10T11:53:19;4.60;;;3.15;;
20531;SDS011;10424;52.102;8.084;2023-06-10T11:55:47;5.22;;;3.20;;
20531;SDS011;10424;52.102;8.084;2023-06-10T11:58:15;5.80;;;3.35;;
20531;SDS011;10424;52.102;8.084;2023-06-10T12:00:46;4.53;;;3.55;;
20531;SDS011;10424;52.102;8.084;2023-06-10T12:03:13;6.40;;;3.92;;
20531;SDS011;10424;52.102;8.084;2023-06-10T12:05:40;4.95;;;3.70;;
20531;SDS011;10424;52.102;8.084;2023-06-10T12:08:09;5.43;;;3.42;;
20531;SDS011;10424;52.102;8.084;2023-06-10T12:10:40;5.25;;;3.85;;
20531;SDS011;10424;52.102;8.084;2023-06-10T12:13:08;6.05;;;3.55;;
20531;SDS011;10424;52.102;8.084;2023-06-10T12:15:36;5.88;;;3.63;;
20531;SDS011;10424;52.102;8.084;2023-06-10T12:18:03;5.10;;;3.90;;
20531;SDS011;10424;52.102;8.084;2023-06-10T12:20:32;6.90;;;3.72;;
20531;SDS011;10424;52.102;8.084;2023-06-10T12:22:59;8.77;;;4.32;;
20531;SDS011;10424;52.102;8.084;2023-06-10T12:25:28;7.28;;;4.07;;
20531;SDS011;10424;52.102;8.084;2023-06-10T12:27:56;5.10;;;3.83;;
20531;SDS011;10424;52.102;8.084;2023-06-10T12:30:26;4.88;;;3.70;;
20531;SDS011;10424;52.102;8.084;2023-06-10T12:32:54;4.95;;;3.83;;
20531;SDS011;10424;52.102;8.084;2023-06-10T12:35:22;6.50;;;3.95;;
20531;SDS011;10424;52.102;8.084;2023-06-10T12:37:57;6.70;;;4.05;;
20531;SDS011;10424;52.102;8.084;2023-06-10T12:40:26;5.72;;;4.10;;
20531;SDS011;10424;52.102;8.084;2023-06-10T12:42:55;5.55;;;3.88;;
20531;SDS011;10424;52.102;8.084;2023-06-10T12:45:26;5.45;;;4.15;;
20531;SDS011;10424;52.102;8.084;2023-06-10T12:48:03;6.05;;;4.30;;
20531;SDS011;10424;52.102;8.084;2023-06-10T12:50:32;5.95;;;4.40;;
20531;SDS011;10424;52.102;8.084;2023-06-10T12:52:59;6.13;;;4.10;;
20531;SDS011;10424;52.102;8.084;2023-06-10T12:55:27;7.28;;;4.20;;
20531;SDS011;10424;52.102;8.084;2023-06-10T12:57:56;4.95;;;4.20;;
20531;SDS011;10424;52.102;8.084;2023-06-10T13:00:23;6.32;;;3.85;;
20531;SDS011;10424;52.102;8.084;2023-06-10T13:02:54;6.43;;;4.03;;
20531;SDS011;10424;52.102;8.084;2023-06-10T13:05:21;5.50;;;4.20;;
20531;SDS011;10424;52.102;8.084;2023-06-10T13:07:49;8.38;;;4.20;;
20531;SDS011;10424;52.102;8.084;2023-06-10T13:10:16;7.80;;;4.25;;
20531;SDS011;10424;52.102;8.084;2023-06-10T13:12:44;7.70;;;4.65;;
20531;SDS011;10424;52.102;8.084;2023-06-10T13:15:14;6.43;;;4.65;;
20531;SDS011;10424;52.102;8.084;2023-06-10T13:17:41;8.05;;;4.60;;
20531;SDS011;10424;52.102;8.084;2023-06-10T13:20:09;5.47;;;4.40;;
20531;SDS011;10424;52.102;8.084;2023-06-10T13:22:36;5.93;;;4.43;;
20531;SDS011;10424;52.102;8.084;2023-06-10T13:25:04;6.10;;;4.63;;
20531;SDS011;10424;52.102;8.084;2023-06-10T13:27:33;6.68;;;4.05;;
20531;SDS011;10424;52.102;8.084;2023-06-10T13:30:00;6.13;;;4.53;;
20531;SDS011;10424;52.102;8.084;2023-06-10T13:32:29;5.80;;;4.43;;
20531;SDS011;10424;52.102;8.084;2023-06-10T13:34:57;6.97;;;4.28;;
20531;SDS011;10424;52.102;8.084;2023-06-10T13:37:24;6.38;;;4.20;;
20531;SDS011;10424;52.102;8.084;2023-06-10T13:39:51;8.25;;;4.47;;
20531;SDS011;10424;52.102;8.084;2023-06-10T13:42:18;7.03;;;4.50;;
20531;SDS011;10424;52.102;8.084;2023-06-10T13:44:46;9.02;;;4.85;;
20531;SDS011;10424;52.102;8.084;2023-06-10T13:47:13;5.45;;;4.38;;
20531;SDS011;10424;52.102;8.084;2023-06-10T13:49:42;5.00;;;4.50;;
20531;SDS011;10424;52.102;8.084;2023-06-10T13:52:09;6.93;;;4.28;;
20531;SDS011;10424;52.102;8.084;2023-06-10T13:54:37;5.90;;;4.28;;
20531;SDS011;10424;52.102;8.084;2023-06-10T13:57:04;9.80;;;4.57;;
20531;SDS011;10424;52.102;8.084;2023-06-10T13:59:35;7.18;;;4.45;;
20531;SDS011;10424;52.102;8.084;2023-06-10T14:02:03;7.22;;;4.60;;
20531;SDS011;10424;52.102;8.084;2023-06-10T14:04:30;8.05;;;4.53;;
20531;SDS011;10424;52.102;8.084;2023-06-10T14:06:59;8.00;;;4.30;;
20531;SDS011;10424;52.102;8.084;2023-06-10T14:09:27;8.45;;;4.55;;
20531;SDS011;10424;52.102;8.084;2023-06-10T14:11:55;6.28;;;4.65;;
20531;SDS011;10424;52.102;8.084;2023-06-10T14:14:22;4.63;;;4.05;;
20531;SDS011;10424;52.102;8.084;2023-06-10T14:16:49;6.50;;;4.57;;
20531;SDS011;10424;52.102;8.084;2023-06-10T14:19:17;8.07;;;4.50;;
20531;SDS011;10424;52.102;8.084;2023-06-10T14:21:44;6.93;;;4.25;;
20531;SDS011;10424;52.102;8.084;2023-06-10T14:24:13;6.72;;;4.60;;
20531;SDS011;10424;52.102;8.084;2023-06-10T14:26:41;7.40;;;4.47;;
20531;SDS011;10424;52.102;8.084;2023-06-10T14:29:08;5.85;;;4.68;;
20531;SDS011;10424;52.102;8.084;2023-06-10T14:31:35;5.88;;;4.50;;
20531;SDS011;10424;52.102;8.084;2023-06-10T14:34:03;5.95;;;4.20;;
20531;SDS011;10424;52.102;8.084;2023-06-10T14:36:32;6.80;;;4.20;;
20531;SDS011;10424;52.102;8.084;2023-06-10T14:39:00;5.95;;;4.30;;
20531;SDS011;10424;52.102;8.084;2023-06-10T14:41:28;5.72;;;4.22;;
20531;SDS011;10424;52.102;8.084;2023-06-10T14:43:56;5.85;;;4.63;;
20531;SDS011;10424;52.102;8.084;2023-06-10T14:46:23;7.35;;;4.70;;
20531;SDS011;10424;52.102;8.084;2023-06-10T14:48:50;6.13;;;4.78;;
20531;SDS011;10424;52.102;8.084;2023-06-10T14:51:18;6.93;;;4.63;;
20531;SDS011;10424;52.102;8.084;2023-06-10T14:53:46;7.72;;;4.63;;
20531;SDS011;10424;52.102;8.084;2023-06-10T14:56:13;7.72;;;4.68;;
20531;SDS011;10424;52.102;8.084;2023-06-10T14:58:42;9.75;;;4.70;;
20531;SDS011;10424;52.102;8.084;2023-06-10T15:01:09;7.88;;;4.78;;